createdAt,value
2024-04-25T00:00:36.582Z,51.57
2024-04-25T00:01:26.520Z,51.76
2024-04-25T00:02:26.581Z,52.28
2024-04-25T00:03:26.759Z,53.16
2024-04-25T00:04:26.587Z,53.50
2024-04-25T00:05:26.579Z,53.25
2024-04-25T00:06:26.512Z,52.59
2024-04-25T00:07:26.529Z,52.25
2024-04-25T00:08:26.586Z,53.06
2024-04-25T00:09:26.519Z,52.21
2024-04-25T00:10:26.545Z,53.40
2024-04-25T00:11:26.631Z,50.26
2024-04-25T00:12:26.521Z,52.65
2024-04-25T00:13:26.548Z,51.83
2024-04-25T00:14:26.540Z,52.50
2024-04-25T00:15:26.549Z,53.69
2024-04-25T00:16:26.540Z,52.50
2024-04-25T00:17:26.541Z,51.04
2024-04-25T00:18:26.545Z,52.41
2024-04-25T00:19:26.545Z,50.77
2024-04-25T00:20:26.590Z,50.58
2024-04-25T00:21:26.603Z,51.89
2024-04-25T00:22:26.608Z,53.27
2024-04-25T00:23:26.632Z,51.82
2024-04-25T00:24:26.570Z,50.00
2024-04-25T00:25:26.593Z,51.96
2024-04-25T00:26:26.654Z,53.84
2024-04-25T00:27:26.638Z,52.78
2024-04-25T00:28:26.626Z,53.89
2024-04-25T00:29:26.660Z,52.96
2024-04-25T00:30:26.672Z,53.72
2024-04-25T00:31:26.625Z,52.06
2024-04-25T00:32:26.727Z,53.02
2024-04-25T00:33:26.667Z,51.34
2024-04-25T00:34:26.603Z,52.19
2024-04-25T00:35:31.692Z,51.15
2024-04-25T00:36:26.621Z,51.17
2024-04-25T00:37:26.624Z,51.39
2024-04-25T00:38:26.640Z,50.64
2024-04-25T00:39:26.605Z,52.62
2024-04-25T00:40:26.628Z,50.39
2024-04-25T00:41:26.670Z,52.72
2024-04-25T00:42:26.641Z,51.73
2024-04-25T00:43:26.649Z,51.60
2024-04-25T00:44:26.675Z,50.00
2024-04-25T00:45:36.742Z,51.75
2024-04-25T00:46:26.647Z,51.91
2024-04-25T00:47:26.761Z,52.49
2024-04-25T00:48:26.743Z,52.94
2024-04-25T00:49:26.642Z,52.80
2024-04-25T00:50:26.695Z,55.61
2024-04-25T00:51:26.651Z,52.61
2024-04-25T00:52:26.655Z,53.49
2024-04-25T00:53:26.696Z,50.99
2024-04-25T00:54:26.639Z,52.38
2024-04-25T00:55:26.687Z,51.16
2024-04-25T00:56:26.726Z,52.64
2024-04-25T00:57:26.678Z,50.85
2024-04-25T00:58:26.671Z,53.05
2024-04-25T00:59:26.712Z,50.70
2024-04-25T01:00:26.673Z,51.50
2024-04-25T01:01:26.682Z,51.87
2024-04-25T01:02:26.723Z,54.48
2024-04-25T01:03:26.718Z,53.42
2024-04-25T01:04:26.811Z,50.55
2024-04-25T01:05:26.736Z,53.03
2024-04-25T01:06:26.700Z,52.38
2024-04-25T01:07:26.690Z,53.28
2024-04-25T01:08:26.738Z,51.63
2024-04-25T01:09:26.720Z,53.73
2024-04-25T01:10:26.690Z,51.01
2024-04-25T01:11:26.761Z,51.52
2024-04-25T01:12:26.694Z,51.51
2024-04-25T01:13:26.696Z,50.75
2024-04-25T01:14:26.717Z,50.62
2024-04-25T01:15:26.681Z,51.58
2024-04-25T01:16:26.699Z,52.14
2024-04-25T01:17:26.704Z,51.86
2024-04-25T01:18:26.763Z,52.10
2024-04-25T01:19:26.728Z,52.91
2024-04-25T01:20:26.744Z,52.58
2024-04-25T01:21:26.789Z,51.75
2024-04-25T01:22:26.849Z,52.01
2024-04-25T01:23:26.963Z,51.07
2024-04-25T01:24:27.001Z,53.51
2024-04-25T01:25:27.098Z,51.48
2024-04-25T01:26:27.172Z,52.84
2024-04-25T01:27:27.246Z,53.66
2024-04-25T01:28:27.310Z,51.05
2024-04-25T01:29:27.399Z,52.93
2024-04-25T01:30:27.455Z,52.00
2024-04-25T01:31:27.533Z,51.46
2024-04-25T01:32:27.777Z,52.50
2024-04-25T01:33:27.759Z,51.22
2024-04-25T01:34:27.808Z,53.06
2024-04-25T01:35:27.874Z,52.16
2024-04-25T01:36:27.922Z,55.31
2024-04-25T01:37:28.014Z,50.78
2024-04-25T01:38:28.107Z,51.98
2024-04-25T01:39:28.197Z,53.36
2024-04-25T01:40:28.296Z,51.59
2024-04-25T01:41:28.360Z,53.15
2024-04-25T01:42:28.439Z,52.06
2024-04-25T01:43:28.500Z,51.69
2024-04-25T01:44:28.624Z,51.89
2024-04-25T01:45:28.659Z,53.77
2024-04-25T01:46:28.745Z,51.67
2024-04-25T01:47:28.972Z,53.07
2024-04-25T01:48:29.059Z,52.64
2024-04-25T01:49:28.981Z,53.86
2024-04-25T01:50:29.091Z,54.04
2024-04-25T01:51:29.152Z,53.22
2024-04-25T01:52:29.219Z,50.51
2024-04-25T01:53:29.394Z,52.89
2024-04-25T01:54:29.379Z,52.28
2024-04-25T01:55:29.470Z,50.00
2024-04-25T01:56:29.587Z,53.33
2024-04-25T01:57:29.672Z,52.46
2024-04-25T01:58:29.700Z,54.24
2024-04-25T01:59:29.818Z,53.44
2024-04-25T02:00:29.880Z,52.05
2024-04-25T02:01:29.985Z,53.19
2024-04-25T02:02:30.107Z,50.35
2024-04-25T02:03:30.136Z,53.68
2024-04-25T02:04:30.204Z,52.59
2024-04-25T02:05:30.358Z,50.80
2024-04-25T02:06:51.420Z,53.89
2024-04-25T02:07:30.383Z,54.18
2024-04-25T02:08:30.407Z,55.14
2024-04-25T02:09:30.386Z,56.18
2024-04-25T02:10:32.794Z,57.71
2024-04-25T02:11:30.415Z,54.13
2024-04-25T02:12:30.440Z,54.66
2024-04-25T02:13:30.470Z,54.91
2024-04-25T02:14:30.489Z,55.23
2024-04-25T02:15:30.500Z,54.32
2024-04-25T02:16:30.514Z,53.33
2024-04-25T02:17:30.691Z,55.34
2024-04-25T02:18:30.645Z,54.26
2024-04-25T02:19:30.599Z,53.74
2024-04-25T02:20:30.666Z,52.79
2024-04-25T02:21:30.670Z,53.15
2024-04-25T02:22:30.686Z,50.00
2024-04-25T02:23:30.748Z,51.72
2024-04-25T02:24:30.747Z,51.95
2024-04-25T02:25:33.250Z,52.38
2024-04-25T02:26:30.897Z,50.00
2024-04-25T02:27:30.880Z,52.34
2024-04-25T02:28:30.939Z,52.71
2024-04-25T02:29:30.955Z,52.51
2024-04-25T02:30:33.212Z,54.07
2024-04-25T02:31:31.013Z,51.27
2024-04-25T02:32:31.139Z,51.39
2024-04-25T02:33:31.084Z,50.58
2024-04-25T02:34:31.181Z,53.36
2024-04-25T02:35:31.297Z,52.05
2024-04-25T02:36:31.358Z,51.29
2024-04-25T02:37:31.456Z,50.51
2024-04-25T02:38:31.570Z,53.49
2024-04-25T02:39:31.604Z,51.08
2024-04-25T02:40:31.682Z,50.23
2024-04-25T02:41:31.789Z,50.29
2024-04-25T02:42:31.842Z,50.00
2024-04-25T02:43:32.004Z,53.38
2024-04-25T02:44:32.033Z,52.05
2024-04-25T02:45:32.104Z,50.15
2024-04-25T02:46:32.195Z,52.55
2024-04-25T02:47:32.335Z,53.69
2024-04-25T02:48:32.401Z,53.84
2024-04-25T02:49:32.432Z,53.50
2024-04-25T02:50:32.565Z,51.44
2024-04-25T02:51:32.589Z,51.55
2024-04-25T02:52:32.686Z,52.48
2024-04-25T02:53:32.953Z,53.19
2024-04-25T02:54:32.844Z,51.91
2024-04-25T02:55:32.956Z,54.23
2024-04-25T02:56:33.020Z,52.80
2024-04-25T02:57:33.108Z,50.52
2024-04-25T02:58:33.178Z,52.48
2024-04-25T02:59:33.311Z,51.79
2024-04-25T03:00:39.267Z,50.58
2024-04-25T03:01:33.361Z,50.72
2024-04-25T03:02:33.484Z,51.07
2024-04-25T03:03:33.493Z,51.40
2024-04-25T03:04:33.368Z,51.61
2024-04-25T03:05:33.440Z,51.46
2024-04-25T03:06:33.371Z,52.46
2024-04-25T03:07:33.357Z,52.49
2024-04-25T03:08:33.395Z,52.85
2024-04-25T03:09:33.368Z,52.12
2024-04-25T03:10:33.364Z,50.22
2024-04-25T03:11:33.399Z,50.56
2024-04-25T03:12:33.373Z,52.00
2024-04-25T03:13:34.275Z,51.70
2024-04-25T03:14:33.493Z,51.75
2024-04-25T03:15:33.561Z,51.89
2024-04-25T03:16:33.631Z,52.93
2024-04-25T03:17:33.924Z,52.48
2024-04-25T03:18:33.773Z,52.54
2024-04-25T03:19:33.744Z,51.26
2024-04-25T03:20:33.810Z,51.05
2024-04-25T03:21:33.926Z,52.45
2024-04-25T03:22:33.864Z,50.74
2024-04-25T03:23:33.999Z,51.20
2024-04-25T03:24:34.070Z,52.15
2024-04-25T03:25:39.219Z,51.97
2024-04-25T03:26:34.199Z,52.02
2024-04-25T03:27:34.206Z,52.05
2024-04-25T03:28:34.193Z,52.09
2024-04-25T03:29:34.273Z,50.64
2024-04-25T03:30:34.226Z,51.83
2024-04-25T03:31:34.222Z,52.87
2024-04-25T03:32:34.265Z,52.70
2024-04-25T03:33:34.272Z,52.95
2024-04-25T03:34:34.341Z,51.90
2024-04-25T03:35:34.449Z,51.15
2024-04-25T03:36:34.498Z,51.91
2024-04-25T03:37:34.650Z,53.41
2024-04-25T03:38:34.685Z,52.19
2024-04-25T03:39:34.765Z,51.69
2024-04-25T03:40:44.886Z,51.71
2024-04-25T03:41:34.903Z,51.92
2024-04-25T03:42:34.853Z,52.32
2024-04-25T03:43:34.856Z,52.72
2024-04-25T03:44:34.971Z,53.96
2024-04-25T03:45:34.875Z,51.73
2024-04-25T03:46:34.877Z,52.91
2024-04-25T03:47:35.025Z,51.91
2024-04-25T03:48:34.929Z,52.79
2024-04-25T03:49:34.885Z,52.40
2024-04-25T03:50:34.948Z,52.18
2024-04-25T03:51:34.864Z,51.52
2024-04-25T03:52:34.874Z,50.37
2024-04-25T03:53:34.912Z,51.01
2024-04-25T03:54:34.878Z,52.41
2024-04-25T03:55:34.878Z,54.37
2024-04-25T03:56:34.951Z,54.61
2024-04-25T03:57:34.910Z,54.50
2024-04-25T03:58:34.919Z,53.87
2024-04-25T03:59:34.952Z,53.01
2024-04-25T04:00:34.932Z,53.08
2024-04-25T04:01:34.935Z,54.24
2024-04-25T04:02:34.979Z,52.97
2024-04-25T04:03:34.974Z,53.34
2024-04-25T04:04:34.950Z,51.67
2024-04-25T04:05:35.005Z,50.66
2024-04-25T04:06:34.968Z,52.95
2024-04-25T04:07:34.948Z,53.87
2024-04-25T04:08:34.991Z,52.58
2024-04-25T04:09:34.952Z,52.79
2024-04-25T04:10:34.962Z,50.54
2024-04-25T04:11:35.024Z,53.19
2024-04-25T04:12:34.959Z,52.52
2024-04-25T04:13:34.958Z,52.84
2024-04-25T04:14:35.037Z,53.01
2024-04-25T04:15:34.975Z,51.09
2024-04-25T04:16:35.081Z,52.66
2024-04-25T04:17:35.294Z,51.17
2024-04-25T04:18:35.263Z,51.72
2024-04-25T04:19:35.374Z,53.67
2024-04-25T04:20:35.517Z,54.64
2024-04-25T04:21:35.530Z,53.66
2024-04-25T04:22:35.589Z,51.39
2024-04-25T04:23:35.730Z,51.92
2024-04-25T04:24:35.782Z,51.22
2024-04-25T04:25:35.862Z,51.77
2024-04-25T04:26:36.051Z,51.04
2024-04-25T04:27:36.038Z,51.89
2024-04-25T04:28:36.132Z,52.05
2024-04-25T04:29:36.257Z,51.40
2024-04-25T04:30:36.349Z,51.73
2024-04-25T04:31:43.942Z,50.00
2024-04-25T04:32:44.018Z,50.00
2024-04-25T04:33:44.098Z,50.00
2024-04-25T04:34:43.948Z,50.00
2024-04-25T04:35:43.980Z,50.00
2024-04-25T04:36:43.940Z,50.00
2024-04-25T04:37:43.948Z,51.43
2024-04-25T04:38:43.998Z,51.13
2024-04-25T04:39:43.948Z,52.09
2024-04-25T04:40:43.961Z,50.67
2024-04-25T04:41:43.980Z,51.82
2024-04-25T04:42:43.964Z,51.88
2024-04-25T04:43:44.048Z,51.03
2024-04-25T04:44:44.923Z,50.87
2024-04-25T04:45:48.292Z,51.70
2024-04-25T04:46:44.172Z,50.72
2024-04-25T04:47:44.208Z,51.85
2024-04-25T04:48:44.238Z,52.20
2024-04-25T04:49:44.166Z,52.45
2024-04-25T04:50:44.190Z,51.71
2024-04-25T04:51:44.182Z,50.74
2024-04-25T04:52:44.168Z,51.89
2024-04-25T04:53:44.173Z,50.21
2024-04-25T04:54:44.157Z,50.57
2024-04-25T04:55:44.171Z,51.50
2024-04-25T04:56:44.164Z,52.30
2024-04-25T04:57:44.170Z,51.37
2024-04-25T04:58:44.186Z,51.22
2024-04-25T04:59:44.225Z,51.18
2024-04-25T05:00:44.243Z,50.07
2024-04-25T05:01:44.202Z,51.77
2024-04-25T05:02:44.232Z,52.88
2024-04-25T05:03:44.237Z,50.23
2024-04-25T05:04:44.207Z,53.43
2024-04-25T05:05:44.252Z,52.78
2024-04-25T05:06:44.194Z,53.27
2024-04-25T05:07:44.193Z,51.42
2024-04-25T05:08:44.228Z,53.53
2024-04-25T05:09:44.212Z,51.22
2024-04-25T05:10:44.208Z,51.47
2024-04-25T05:11:44.287Z,51.95
2024-04-25T05:12:44.218Z,53.01
2024-04-25T05:13:44.224Z,54.62
2024-04-25T05:14:44.265Z,53.93
2024-04-25T05:15:44.238Z,51.89
2024-04-25T05:16:44.210Z,51.62
2024-04-25T05:17:44.288Z,51.51
2024-04-25T05:18:44.229Z,54.42
2024-04-25T05:19:44.240Z,52.47
2024-04-25T05:20:44.369Z,53.59
2024-04-25T05:21:44.401Z,50.62
2024-04-25T05:22:44.496Z,52.57
2024-04-25T05:23:45.761Z,52.48
2024-04-25T05:24:44.576Z,53.81
2024-04-25T05:25:44.574Z,54.30
2024-04-25T05:26:44.578Z,52.58
2024-04-25T05:27:44.571Z,50.74
2024-04-25T05:28:44.587Z,52.14
2024-04-25T05:29:44.659Z,51.33
2024-04-25T05:30:44.628Z,50.00
2024-04-25T05:31:44.578Z,50.00
2024-04-25T05:32:44.744Z,50.00
2024-04-25T05:33:44.652Z,51.02
2024-04-25T05:34:44.628Z,50.36
2024-04-25T05:35:44.697Z,50.89
2024-04-25T05:36:44.634Z,50.00
2024-04-25T05:37:44.631Z,50.00
2024-04-25T05:38:44.655Z,50.67
2024-04-25T05:39:44.603Z,51.43
2024-04-25T05:40:44.612Z,50.00
2024-04-25T05:41:44.621Z,49.34
2024-04-25T05:42:44.610Z,50.39
2024-04-25T05:43:44.608Z,51.42
2024-04-25T05:44:44.672Z,52.93
2024-04-25T05:45:44.628Z,51.44
2024-04-25T05:46:44.608Z,50.00
2024-04-25T05:47:44.716Z,54.08
2024-04-25T05:48:44.723Z,51.42
2024-04-25T05:49:44.613Z,52.17
2024-04-25T05:50:44.710Z,52.78
2024-04-25T05:51:44.630Z,50.90
2024-04-25T05:52:44.646Z,52.69
2024-04-25T05:53:44.687Z,52.54
2024-04-25T05:54:44.641Z,55.39
2024-04-25T05:55:46.670Z,54.04
2024-04-25T05:56:44.754Z,54.71
2024-04-25T05:57:44.625Z,56.15
2024-04-25T05:58:44.623Z,55.30
2024-04-25T05:59:44.651Z,54.70
2024-04-25T06:00:44.714Z,57.14
2024-04-25T06:01:44.686Z,57.10
2024-04-25T06:02:44.851Z,53.05
2024-04-25T06:03:44.894Z,52.37
2024-04-25T06:04:44.828Z,52.52
2024-04-25T06:05:44.969Z,50.00
2024-04-25T06:06:44.839Z,51.29
2024-04-25T06:07:44.886Z,51.33
2024-04-25T06:08:45.017Z,51.63
2024-04-25T06:09:44.952Z,50.20
2024-04-25T06:10:45.112Z,51.32
2024-04-25T06:11:45.268Z,51.78
2024-04-25T06:12:45.325Z,50.29
2024-04-25T06:13:45.119Z,50.00
2024-04-25T06:14:45.314Z,53.82
2024-04-25T06:15:45.245Z,50.49
2024-04-25T06:16:45.451Z,50.27
2024-04-25T06:17:45.515Z,50.99
2024-04-25T06:18:45.501Z,50.23
2024-04-25T06:19:45.568Z,50.81
2024-04-25T06:20:45.836Z,50.00
2024-04-25T06:21:45.684Z,52.04
2024-04-25T06:22:45.755Z,50.88
2024-04-25T06:23:45.894Z,51.82
2024-04-25T06:24:45.955Z,50.29
2024-04-25T06:25:46.026Z,51.19
2024-04-25T06:26:46.123Z,51.30
2024-04-25T06:27:46.141Z,51.15
2024-04-25T06:28:46.210Z,50.12
2024-04-25T06:29:46.328Z,50.00
2024-04-25T06:30:46.360Z,50.81
2024-04-25T06:31:46.479Z,50.32
2024-04-25T06:32:46.655Z,52.58
2024-04-25T06:33:46.618Z,52.46
2024-04-25T06:34:46.608Z,52.15
2024-04-25T06:35:46.731Z,52.32
2024-04-25T06:36:46.719Z,52.06
2024-04-25T06:37:48.107Z,51.36
2024-04-25T06:38:46.848Z,50.00
2024-04-25T06:39:46.920Z,50.99
2024-04-25T06:40:46.918Z,50.93
2024-04-25T06:41:53.661Z,50.00
2024-04-25T06:42:47.977Z,50.02
2024-04-25T06:43:46.960Z,48.18
2024-04-25T06:44:53.073Z,45.90
2024-04-25T06:45:47.956Z,45.44
2024-04-25T06:46:46.964Z,45.25
2024-04-25T06:47:47.015Z,38.74
2024-04-25T06:48:47.813Z,38.65
2024-04-25T06:49:46.970Z,33.26
2024-04-25T06:50:47.095Z,43.25
2024-04-25T06:51:46.983Z,50.00
2024-04-25T06:52:46.981Z,50.00
2024-04-25T06:53:46.999Z,50.56
2024-04-25T06:54:46.982Z,50.98
2024-04-25T06:55:47.003Z,50.00
2024-04-25T06:56:47.017Z,54.43
2024-04-25T06:57:46.993Z,55.26
2024-04-25T06:58:47.033Z,58.98
2024-04-25T06:59:48.380Z,62.28
2024-04-25T07:00:47.191Z,69.90
2024-04-25T07:01:47.239Z,72.54
2024-04-25T07:02:47.242Z,82.99
2024-04-25T07:03:47.270Z,94.97
2024-04-25T07:04:47.279Z,103.06
2024-04-25T07:05:47.480Z,107.71
2024-04-25T07:06:47.487Z,115.09
2024-04-25T07:07:47.579Z,121.42
2024-04-25T07:08:47.755Z,124.07
2024-04-25T07:09:47.809Z,135.76
2024-04-25T07:10:47.988Z,140.82
2024-04-25T07:11:48.039Z,146.08
2024-04-25T07:12:48.159Z,149.55
2024-04-25T07:13:48.427Z,153.98
2024-04-25T07:14:48.451Z,155.91
2024-04-25T07:15:48.399Z,159.37
2024-04-25T07:16:48.524Z,164.88
2024-04-25T07:17:48.717Z,168.06
2024-04-25T07:18:48.719Z,168.59
2024-04-25T07:19:48.740Z,168.51
2024-04-25T07:20:48.889Z,170.54
2024-04-25T07:21:48.920Z,172.85
2024-04-25T07:22:49.026Z,177.55
2024-04-25T07:23:49.129Z,181.41
2024-04-25T07:24:49.191Z,189.86
2024-04-25T07:25:49.283Z,187.06
2024-04-25T07:26:49.397Z,189.74
2024-04-25T07:27:49.494Z,187.52
2024-04-25T07:28:49.534Z,187.35
2024-04-25T07:29:49.657Z,191.31
2024-04-25T07:30:49.709Z,192.75
2024-04-25T07:31:49.817Z,197.12
2024-04-25T07:32:49.949Z,200.00
2024-04-25T07:33:50.069Z,197.38
2024-04-25T07:34:50.044Z,197.21
2024-04-25T07:35:50.311Z,199.89
2024-04-25T07:36:50.216Z,200.00
2024-04-25T07:37:50.317Z,198.09
2024-04-25T07:38:50.484Z,199.93
2024-04-25T07:39:50.443Z,200.00
2024-04-25T07:40:50.539Z,199.37
2024-04-25T07:41:50.646Z,199.80
2024-04-25T07:42:50.689Z,199.23
2024-04-25T07:43:50.758Z,200.00
2024-04-25T07:44:50.852Z,198.61
2024-04-25T07:45:50.811Z,197.10
2024-04-25T07:46:50.834Z,193.18
2024-04-25T07:47:51.068Z,191.93
2024-04-25T07:48:50.995Z,188.61
2024-04-25T07:49:50.978Z,187.57
2024-04-25T07:50:51.041Z,186.01
2024-04-25T07:51:51.081Z,183.04
2024-04-25T07:52:51.114Z,181.89
2024-04-25T07:53:51.282Z,183.82
2024-04-25T07:54:51.235Z,185.80
2024-04-25T07:55:51.285Z,191.28
2024-04-25T07:56:51.354Z,197.36
2024-04-25T07:57:51.340Z,199.87
2024-04-25T07:58:51.426Z,198.06
2024-04-25T07:59:51.561Z,200.00
2024-04-25T08:00:51.587Z,200.00
2024-04-25T08:01:51.604Z,200.07
2024-04-25T08:02:51.739Z,200.00
2024-04-25T08:03:51.790Z,199.41
2024-04-25T08:04:51.853Z,199.77
2024-04-25T08:05:52.064Z,199.96
2024-04-25T08:06:51.959Z,200.00
2024-04-25T08:07:52.046Z,199.22
2024-04-25T08:08:52.205Z,200.26
2024-04-25T08:09:52.162Z,200.37
2024-04-25T08:10:52.291Z,200.00
2024-04-25T08:11:52.362Z,199.88
2024-04-25T08:12:52.391Z,200.00
2024-04-25T08:13:52.492Z,200.00
2024-04-25T08:14:52.654Z,199.66
2024-04-25T08:15:52.708Z,199.94
2024-04-25T08:16:52.779Z,200.00
2024-04-25T08:17:52.919Z,200.00
2024-04-25T08:18:52.956Z,200.45
2024-04-25T08:19:53.072Z,199.38
2024-04-25T08:20:53.230Z,200.00
2024-04-25T08:21:53.289Z,199.81
2024-04-25T08:22:53.421Z,200.00
2024-04-25T08:23:53.638Z,199.86
2024-04-25T08:24:53.695Z,199.33
2024-04-25T08:25:53.858Z,200.00
2024-04-25T08:26:54.076Z,199.81
2024-04-25T08:27:54.144Z,200.00
2024-04-25T08:28:54.292Z,199.82
2024-04-25T08:29:54.487Z,200.00
2024-04-25T08:30:54.622Z,200.00
2024-04-25T08:31:54.804Z,199.27
2024-04-25T08:32:55.126Z,194.99
2024-04-25T08:33:55.268Z,186.07
2024-04-25T08:34:55.267Z,177.09
2024-04-25T08:35:55.375Z,170.73
2024-04-25T08:36:55.392Z,164.95
2024-04-25T08:37:55.472Z,159.02
2024-04-25T08:38:55.538Z,155.34
2024-04-25T08:39:55.633Z,153.70
2024-04-25T08:40:55.669Z,152.10
2024-04-25T08:55:26.150Z,50.00
2024-04-25T08:56:26.125Z,50.00
2024-04-25T08:57:26.161Z,50.00
2024-04-25T08:58:26.124Z,50.00
2024-04-25T08:59:26.139Z,50.00
2024-04-25T09:00:26.183Z,42.81
2024-04-25T09:01:26.202Z,39.92
2024-04-25T09:02:26.270Z,42.57
2024-04-25T09:03:26.283Z,48.56
2024-04-25T09:04:26.184Z,50.87
2024-04-25T09:05:26.330Z,50.00
2024-04-25T09:06:29.161Z,50.92
2024-04-25T09:07:26.392Z,50.00
2024-04-25T09:08:26.453Z,51.34
2024-04-25T09:09:26.396Z,50.29
2024-04-25T09:10:26.392Z,50.93
2024-04-25T09:11:26.662Z,51.32
2024-04-25T09:12:26.471Z,51.87
2024-04-25T09:13:26.467Z,52.86
2024-04-25T09:14:26.469Z,54.27
2024-04-25T09:15:26.440Z,54.69
2024-04-25T09:16:26.511Z,57.31
2024-04-25T09:17:26.463Z,58.25
2024-04-25T09:18:26.493Z,63.09
2024-04-25T09:19:26.437Z,65.07
2024-04-25T09:20:26.433Z,68.05
2024-04-25T09:21:26.429Z,70.77
2024-04-25T09:22:26.415Z,74.50
2024-04-25T09:23:26.444Z,77.03
2024-04-25T09:24:26.435Z,79.58
2024-04-25T09:25:26.446Z,83.47
2024-04-25T09:26:26.486Z,86.88
2024-04-25T09:27:26.454Z,91.31
2024-04-25T09:28:26.428Z,93.90
2024-04-25T09:29:26.436Z,98.66
2024-04-25T09:30:26.439Z,102.41
2024-04-25T09:31:26.452Z,105.25
2024-04-25T09:32:26.496Z,109.71
2024-04-25T09:33:26.514Z,112.13
2024-04-25T09:34:26.417Z,116.11
2024-04-25T09:35:26.474Z,120.14
2024-04-25T09:36:26.484Z,124.06
2024-04-25T09:37:26.433Z,126.54
2024-04-25T09:38:26.503Z,129.77
2024-04-25T09:39:26.563Z,134.69
2024-04-25T09:40:26.745Z,136.64
2024-04-25T09:41:26.781Z,140.36
2024-04-25T09:42:26.847Z,142.93
2024-04-25T09:43:26.922Z,147.52
2024-04-25T09:44:27.302Z,147.57
2024-04-25T09:45:27.128Z,150.50
2024-04-25T09:46:27.230Z,153.73
2024-04-25T09:47:27.335Z,155.65
2024-04-25T09:48:27.382Z,160.79
2024-04-25T09:49:27.464Z,165.20
2024-04-25T09:50:27.650Z,166.08
2024-04-25T09:51:27.633Z,168.89
2024-04-25T09:52:27.749Z,172.57
2024-04-25T09:53:27.899Z,176.95
2024-04-25T09:54:27.919Z,178.95
2024-04-25T09:55:28.019Z,183.29
2024-04-25T09:56:28.156Z,179.62
2024-04-25T09:57:28.203Z,186.32
2024-04-25T09:58:28.316Z,186.29
2024-04-25T09:59:28.425Z,186.57
2024-04-25T10:00:28.460Z,191.81
2024-04-25T10:01:28.546Z,193.68
2024-04-25T10:02:28.695Z,196.79
2024-04-25T10:03:28.705Z,198.88
2024-04-25T10:04:29.672Z,199.46
2024-04-25T10:05:28.892Z,198.48
2024-04-25T10:06:28.859Z,199.99
2024-04-25T10:07:28.954Z,200.00
2024-04-25T10:08:28.923Z,198.88
2024-04-25T10:09:29.004Z,199.74
2024-04-25T10:10:29.078Z,199.38
2024-04-25T10:11:29.288Z,200.12
2024-04-25T10:12:29.142Z,190.61
2024-04-25T10:13:29.212Z,167.28
2024-04-25T10:14:29.459Z,141.05
2024-04-25T10:15:29.422Z,109.24
2024-04-25T10:16:29.488Z,81.86
2024-04-25T10:17:29.744Z,54.25
2024-04-25T10:18:29.998Z,47.20
2024-04-25T10:19:29.871Z,50.00
2024-04-25T10:20:29.983Z,50.00
2024-04-25T10:21:30.055Z,49.24
2024-04-25T10:22:32.434Z,50.83
2024-04-25T10:23:30.129Z,50.00
2024-04-25T10:24:30.106Z,50.71
2024-04-25T10:25:30.123Z,52.70
2024-04-25T10:26:30.946Z,52.74
2024-04-25T10:27:30.132Z,55.37
2024-04-25T10:28:30.111Z,57.12
2024-04-25T10:29:30.174Z,60.75
2024-04-25T10:30:30.123Z,62.93
2024-04-25T10:31:30.118Z,66.43
2024-04-25T10:32:30.217Z,68.05
2024-04-25T10:33:30.205Z,69.17
2024-04-25T10:34:30.137Z,72.94
2024-04-25T10:35:30.113Z,74.85
2024-04-25T10:36:30.156Z,77.96
2024-04-25T10:37:30.108Z,80.74
2024-04-25T10:38:30.163Z,82.37
2024-04-25T10:39:30.135Z,85.19
2024-04-25T10:40:30.123Z,87.28
2024-04-25T10:41:30.170Z,83.02
2024-04-25T10:42:30.143Z,77.97
2024-04-25T10:43:30.158Z,68.15
2024-04-25T10:44:30.210Z,56.85
2024-04-25T10:45:30.289Z,50.00
2024-04-25T10:46:30.220Z,49.54
2024-04-25T10:47:30.272Z,49.47
2024-04-25T10:48:30.405Z,50.00
2024-04-25T10:49:30.234Z,50.00
2024-04-25T10:50:30.224Z,50.00
2024-04-25T10:51:31.228Z,50.89
2024-04-25T10:52:30.217Z,50.20
2024-04-25T10:53:30.207Z,51.37
2024-04-25T10:54:30.221Z,52.67
2024-04-25T10:55:30.222Z,52.80
2024-04-25T10:56:30.205Z,54.60
2024-04-25T10:57:30.235Z,57.13
2024-04-25T10:58:30.195Z,59.78
2024-04-25T10:59:30.905Z,63.31
2024-04-25T11:00:30.212Z,65.96
2024-04-25T11:01:30.238Z,69.23
2024-04-25T11:02:30.252Z,72.19
2024-04-25T11:03:30.297Z,75.70
2024-04-25T11:04:30.281Z,78.70
2024-04-25T11:05:30.383Z,82.36
2024-04-25T11:06:30.355Z,86.08
2024-04-25T11:07:30.466Z,88.49
2024-04-25T11:08:30.558Z,91.08
2024-04-25T11:09:30.639Z,94.37
2024-04-25T11:10:30.733Z,97.81
2024-04-25T11:11:31.008Z,100.46
2024-04-25T11:12:30.947Z,103.83
2024-04-25T11:13:31.082Z,105.73
2024-04-25T11:14:31.202Z,107.36
2024-04-25T11:15:31.260Z,111.58
2024-04-25T11:16:31.377Z,113.84
2024-04-25T11:17:37.229Z,116.24
2024-04-25T11:18:33.889Z,116.35
2024-04-25T11:19:33.284Z,117.09
2024-04-25T11:20:31.751Z,116.52
2024-04-25T11:21:31.604Z,117.94
2024-04-25T11:22:41.746Z,120.90
2024-04-25T11:23:32.572Z,116.84
2024-04-25T11:24:31.594Z,119.01
2024-04-25T11:25:31.510Z,123.35
2024-04-25T11:26:31.565Z,129.69
2024-04-25T11:27:31.515Z,139.29
2024-04-25T11:28:31.530Z,141.92
2024-04-25T11:29:31.576Z,145.05
2024-04-25T11:30:31.626Z,147.88
2024-04-25T11:31:31.549Z,149.83
2024-04-25T11:32:31.734Z,152.10
2024-04-25T11:33:31.640Z,144.13
2024-04-25T11:34:31.634Z,143.01
2024-04-25T11:35:31.957Z,140.26
2024-04-25T11:36:32.020Z,133.03
2024-04-25T11:37:31.951Z,124.29
2024-04-25T11:38:32.032Z,116.46
2024-04-25T11:39:32.130Z,104.77
2024-04-25T11:40:32.159Z,93.99
2024-04-25T11:41:32.289Z,82.86
2024-04-25T11:42:32.306Z,69.87
2024-04-25T11:43:32.442Z,60.00
2024-04-25T11:44:32.506Z,51.19
2024-04-25T11:45:35.344Z,50.00
2024-04-25T11:46:32.621Z,50.00
2024-04-25T11:47:32.608Z,49.01
2024-04-25T11:48:32.673Z,50.00
2024-04-25T11:49:32.592Z,49.85
2024-04-25T11:50:32.600Z,50.39
2024-04-25T11:51:32.607Z,50.60
2024-04-25T11:52:32.607Z,50.20
2024-04-25T11:53:32.625Z,50.82
2024-04-25T11:54:32.626Z,51.18
2024-04-25T11:55:32.730Z,53.78
2024-04-25T11:56:32.656Z,56.39
2024-04-25T11:57:32.651Z,58.10
2024-04-25T11:58:32.653Z,61.03
2024-04-25T11:59:32.675Z,64.69
2024-04-25T12:00:32.614Z,67.59
2024-04-25T12:01:32.629Z,71.23
2024-04-25T12:02:32.650Z,73.09
2024-04-25T12:03:32.642Z,75.06
2024-04-25T12:04:32.755Z,77.34
2024-04-25T12:05:32.746Z,79.49
2024-04-25T12:06:32.663Z,80.98
2024-04-25T12:07:32.672Z,82.87
2024-04-25T12:08:32.711Z,84.37
2024-04-25T12:09:33.684Z,85.55
2024-04-25T12:10:32.696Z,87.05
2024-04-25T12:11:32.677Z,88.00
2024-04-25T12:12:32.779Z,89.83
2024-04-25T12:13:32.681Z,91.23
2024-04-25T12:14:32.703Z,92.58
2024-04-25T12:15:32.730Z,93.62
2024-04-25T12:16:32.772Z,94.71
2024-04-25T12:17:33.878Z,95.92
2024-04-25T12:18:32.780Z,96.54
2024-04-25T12:19:32.743Z,96.89
2024-04-25T12:20:32.746Z,98.15
2024-04-25T12:21:32.708Z,98.05
2024-04-25T12:22:32.717Z,99.54
2024-04-25T12:23:32.764Z,100.18
2024-04-25T12:24:32.737Z,100.44
2024-04-25T12:25:32.732Z,101.64
2024-04-25T12:26:32.791Z,102.73
2024-04-25T12:27:32.901Z,103.41
2024-04-25T12:28:34.749Z,103.74
2024-04-25T12:29:33.040Z,104.47
2024-04-25T12:30:38.907Z,105.13
2024-04-25T12:31:33.042Z,105.17
2024-04-25T12:32:33.119Z,105.31
2024-04-25T12:33:33.208Z,105.67
2024-04-25T12:34:33.073Z,106.76
2024-04-25T12:35:33.095Z,107.72
2024-04-25T12:37:35.370Z,50.00
2024-04-25T12:38:35.476Z,50.00
2024-04-25T12:39:35.325Z,50.00
2024-04-25T12:40:35.327Z,50.00
2024-04-25T12:41:35.390Z,50.00
2024-04-25T12:42:35.349Z,50.00
2024-04-25T12:43:35.359Z,51.73
2024-04-25T12:44:35.388Z,51.15
2024-04-25T12:45:37.483Z,50.00
2024-04-25T12:46:35.544Z,54.16
2024-04-25T12:47:35.728Z,50.88
2024-04-25T12:48:35.822Z,55.37
2024-04-25T12:49:35.715Z,54.30
2024-04-25T12:50:35.800Z,54.15
2024-04-25T12:51:35.809Z,57.16
2024-04-25T12:52:35.908Z,57.56
2024-04-25T12:53:35.919Z,56.59
2024-04-25T12:54:35.951Z,56.45
2024-04-25T12:55:35.998Z,55.47
2024-04-25T12:56:36.156Z,55.15
2024-04-25T12:57:36.127Z,56.98
2024-04-25T12:58:36.125Z,55.74
2024-04-25T12:59:36.201Z,57.17
2024-04-25T13:00:36.279Z,57.31
2024-04-25T13:01:36.270Z,57.04